Time;durP1;ratioP1;P1;durP2;ratioP2;P2;SDS_P1;SDS_P2;PMS_P1;PMS_P2;Temp;Humidity;BMP_temperature;BMP_pressure;BME280_temperature;BME280_humidity;BME280_pressure;Samples;Min_cycle;Max_cycle;Signal;HPM_P1;HPM_P2
2022/05/21 00:02:17;;;;;;;3.33;2.80;;;;;;;12.98;nan;-24179.31;5075657;28;20223;-70
2022/05/21 00:04:42;;;;;;;2.58;2.00;;;;;;;12.72;nan;-24172.28;5075521;28;20182;-72
2022/05/21 00:07:10;;;;;;;3.80;2.30;;;;;;;12.87;nan;-24176.34;5075392;28;20219;-73
2022/05/21 00:09:36;;;;;;;3.85;2.47;;;;;;;12.93;nan;-24178.03;5075383;28;20166;-76
2022/05/21 00:12:02;;;;;;;3.15;2.38;;;;;;;12.83;nan;-24175.38;5075359;28;20656;-72
2022/05/21 00:14:29;;;;;;;2.97;2.13;;;;;;;12.91;nan;-24177.34;5074978;28;20680;-72
2022/05/21 00:16:54;;;;;;;3.00;2.23;;;;;;;12.97;nan;-24179.03;5075261;28;20173;-72
2022/05/21 00:19:20;;;;;;;4.78;2.28;;;;;;;12.64;nan;-24169.88;5074881;28;20241;-72
2022/05/21 00:21:45;;;;;;;2.72;1.95;;;;;;;12.56;nan;-24167.78;5075012;28;20179;-71
2022/05/21 00:24:11;;;;;;;2.45;1.80;;;;;;;12.73;nan;-24172.41;5074915;28;20245;-72
2022/05/21 00:26:36;;;;;;;3.30;2.05;;;;;;;12.50;nan;-24166.09;5074888;28;20173;-70
2022/05/21 00:29:03;;;;;;;2.58;2.10;;;;;;;12.83;nan;-24175.22;5074884;28;20177;-70
2022/05/21 00:31:28;;;;;;;2.50;2.03;;;;;;;12.84;nan;-24175.66;5073218;28;20174;-74
2022/05/21 00:33:53;;;;;;;4.65;2.20;;;;;;;12.80;nan;-24174.38;5074124;28;20221;-74
2022/05/21 00:36:19;;;;;;;2.60;2.17;;;;;;;12.79;nan;-24174.25;5078520;28;20186;-72
2022/05/21 00:38:45;;;;;;;3.22;2.20;;;;;;;12.72;nan;-24172.28;5076748;28;20193;-72
2022/05/21 00:41:13;;;;;;;3.88;2.22;;;;;;;12.71;nan;-24172.00;5077648;28;20296;-69
2022/05/21 00:43:50;;;;;;;3.10;2.17;;;;;;;12.89;nan;-24176.78;5072767;28;20186;-71
2022/05/21 00:46:24;;;;;;;2.63;2.10;;;;;;;12.98;nan;-24179.31;5078346;28;20182;-70
2022/05/21 00:48:53;;;;;;;2.28;2.00;;;;;;;12.64;nan;-24170.03;5077948;28;20189;-71
2022/05/21 00:51:22;;;;;;;3.67;1.83;;;;;;;12.80;nan;-24174.53;5076448;28;20644;-73
2022/05/21 00:53:51;;;;;;;2.63;2.17;;;;;;;12.55;nan;-24167.50;5076923;28;20217;-70
2022/05/21 00:56:18;;;;;;;2.50;2.08;;;;;;;12.76;nan;-24173.41;5075417;28;20185;-72
2022/05/21 01:01:34;;;;;;;2.63;2.30;;;;;;;12.62;nan;-24169.47;5075095;28;20180;-71
2022/05/21 01:03:59;;;;;;;2.67;2.17;;;;;;;12.61;nan;-24169.03;5077072;28;20182;-71
2022/05/21 01:06:25;;;;;;;4.43;2.22;;;;;;;12.72;nan;-24172.28;5073810;28;20181;-71
2022/05/21 01:08:50;;;;;;;3.20;2.47;;;;;;;12.34;nan;-24161.72;5073965;28;20189;-70
2022/05/21 01:11:18;;;;;;;3.58;2.20;;;;;;;12.20;nan;-24157.78;5074021;28;20185;-70
2022/05/21 01:13:46;;;;;;;3.38;2.20;;;;;;;12.45;nan;-24164.69;5075304;28;20219;-75
2022/05/21 01:16:13;;;;;;;3.20;2.15;;;;;;;12.25;nan;-24159.06;5078282;28;20185;-71
2022/05/21 01:18:39;;;;;;;3.35;2.15;;;;;;;12.21;nan;-24158.06;5073642;28;20178;-69
2022/05/21 01:21:05;;;;;;;3.37;2.50;;;;;;;12.10;nan;-24154.97;5075519;28;20181;-72
2022/05/21 01:23:31;;;;;;;2.80;2.00;;;;;;;11.96;nan;-24151.03;5076104;28;20280;-71
2022/05/21 01:25:59;;;;;;;4.07;2.53;;;;;;;12.00;nan;-24152.16;5076055;28;20281;-71
2022/05/21 01:28:26;;;;;;;2.33;1.97;;;;;;;12.17;nan;-24156.78;5074842;28;20221;-71
2022/05/21 01:30:55;;;;;;;5.78;2.58;;;;;;;12.07;nan;-24154.00;5078689;28;20185;-70
2022/05/21 01:33:24;;;;;;;3.75;2.47;;;;;;;12.31;nan;-24160.88;5075983;28;20202;-69
2022/05/21 01:35:50;;;;;;;2.80;2.30;;;;;;;12.21;nan;-24158.06;5073769;28;20271;-70
2022/05/21 01:38:19;;;;;;;2.47;2.17;;;;;;;12.27;nan;-24159.75;5073606;28;20209;-70
2022/05/21 01:40:44;;;;;;;7.77;2.27;;;;;;;12.21;nan;-24157.91;5075432;28;20238;-71
2022/05/21 01:45:54;;;;;;;4.03;2.27;;;;;;;12.39;nan;-24163.00;5074962;28;20189;-72
2022/05/21 01:48:21;;;;;;;5.43;2.30;;;;;;;12.31;nan;-24160.88;5073535;28;20182;-72
2022/05/21 01:50:48;;;;;;;3.27;2.73;;;;;;;12.29;nan;-24160.31;5075727;28;20192;-72
2022/05/21 01:53:15;;;;;;;2.60;2.30;;;;;;;11.93;nan;-24150.31;5106138;28;20213;-72
2022/05/21 01:55:42;;;;;;;3.93;2.27;;;;;;;12.24;nan;-24158.91;5072990;28;20334;-72
2022/05/21 01:58:07;;;;;;;2.73;2.20;;;;;;;12.35;nan;-24161.88;5073385;28;20189;-72
2022/05/21 02:00:33;;;;;;;2.50;2.20;;;;;;;12.35;nan;-24162.00;5074606;28;20186;-73
2022/05/21 02:02:59;;;;;;;6.33;2.30;;;;;;;12.36;nan;-24162.28;5073633;28;20182;-73
2022/05/21 02:05:24;;;;;;;4.35;2.22;;;;;;;12.30;nan;-24160.59;5073155;28;20197;-74
2022/05/21 02:07:52;;;;;;;2.37;2.13;;;;;;;12.32;nan;-24161.16;5077406;28;20653;-77
2022/05/21 02:10:17;;;;;;;2.93;2.33;;;;;;;12.03;nan;-24152.84;5072857;28;20261;-70
2022/05/21 02:12:43;;;;;;;2.70;2.20;;;;;;;12.31;nan;-24160.88;5072120;28;20265;-74
2022/05/21 02:15:09;;;;;;;4.17;2.33;;;;;;;12.22;nan;-24158.22;5073047;28;20235;-73
2022/05/21 02:17:34;;;;;;;3.37;2.57;;;;;;;12.03;nan;-24152.84;5073201;28;20174;-72
2022/05/21 02:20:00;;;;;;;3.67;2.37;;;;;;;12.14;nan;-24156.09;5072854;28;20166;-70
2022/05/21 02:22:27;;;;;;;2.73;2.37;;;;;;;12.12;nan;-24155.38;5072920;28;20172;-73
2022/05/21 02:24:52;;;;;;;5.70;2.27;;;;;;;12.05;nan;-24153.41;5072708;28;20641;-71
2022/05/21 02:27:17;;;;;;;2.90;2.20;;;;;;;11.64;nan;-24142.16;5072748;28;20208;-70
2022/05/21 02:29:43;;;;;;;3.30;2.27;;;;;;;11.95;nan;-24150.75;5072997;28;20583;-73
2022/05/21 02:32:11;;;;;;;3.53;2.50;;;;;;;12.18;nan;-24157.22;5072693;28;20231;-74
2022/05/21 02:34:36;;;;;;;3.83;2.40;;;;;;;11.74;nan;-24144.84;5072366;28;20676;-71
2022/05/21 02:39:47;;;;;;;3.00;2.50;;;;;;;11.45;nan;-24136.81;5070836;28;20591;-73
2022/05/21 02:44:57;;;;;;;4.30;2.30;;;;;;;11.53;nan;-24139.19;5073495;28;20333;-72
2022/05/21 02:47:24;;;;;;;3.53;2.37;;;;;;;11.36;nan;-24134.25;5071778;28;20261;-74
2022/05/21 02:49:49;;;;;;;4.87;2.93;;;;;;;11.61;nan;-24141.16;5072105;28;20177;-73
2022/05/21 02:52:15;;;;;;;2.73;2.30;;;;;;;11.27;nan;-24131.88;5071527;28;20222;-69
2022/05/21 02:54:41;;;;;;;2.47;1.97;;;;;;;11.46;nan;-24137.09;5070644;28;20265;-73
2022/05/21 02:57:09;;;;;;;3.63;2.80;;;;;;;11.29;nan;-24132.28;5073698;28;20231;-72
2022/05/21 02:59:35;;;;;;;3.07;2.50;;;;;;;11.34;nan;-24133.84;5071784;28;20324;-73
2022/05/21 03:02:00;;;;;;;3.10;2.50;;;;;;;11.67;nan;-24143.00;5077137;28;20186;-73
2022/05/21 03:04:26;;;;;;;3.33;2.37;;;;;;;11.62;nan;-24141.44;5073294;28;20651;-71
2022/05/21 03:06:52;;;;;;;5.20;2.60;;;;;;;11.71;nan;-24143.97;5076356;28;20590;-72
2022/05/21 03:12:01;;;;;;;2.27;2.07;;;;;;;11.65;nan;-24142.44;5071660;28;20188;-71
2022/05/21 03:14:27;;;;;;;2.83;2.33;;;;;;;12.23;nan;-24158.50;5071756;28;20209;-71
2022/05/21 03:16:59;;;;;;;3.70;2.47;;;;;;;13.03;nan;-24180.72;5071287;28;20188;-72
2022/05/21 03:19:24;;;;;;;3.67;2.25;;;;;;;13.73;nan;-24200.38;5068904;28;20556;-73
2022/05/21 03:21:50;;;;;;;2.10;1.90;;;;;;;15.50;nan;-24249.31;5072352;28;20205;-73
2022/05/21 03:24:15;;;;;;;2.63;2.05;;;;;;;16.93;nan;-24288.88;5071094;28;20267;-72
2022/05/21 03:26:41;;;;;;;2.28;2.00;;;;;;;17.49;nan;-24304.38;5072007;28;20220;-69
2022/05/21 03:29:06;;;;;;;2.78;2.00;;;;;;;18.68;nan;-24337.00;5073272;28;20542;-71
2022/05/21 03:31:31;;;;;;;2.50;2.20;;;;;;;19.12;nan;-24349.25;5071744;28;20257;-72
2022/05/21 03:33:57;;;;;;;2.00;1.80;;;;;;;19.72;nan;-24365.81;5071681;28;20189;-72
2022/05/21 03:36:22;;;;;;;4.90;2.20;;;;;;;20.55;nan;-24388.47;5074009;28;20645;-72
2022/05/21 03:38:49;;;;;;;2.33;2.00;;;;;;;21.70;nan;-24420.06;5071617;28;20199;-71
2022/05/21 03:41:15;;;;;;;2.55;2.00;;;;;;;22.57;nan;-24443.75;5071933;28;20181;-74
2022/05/21 03:43:41;;;;;;;2.80;2.10;;;;;;;23.16;nan;-24459.94;5079339;28;20914;-73
2022/05/21 03:46:06;;;;;;;3.15;2.33;;;;;;;20.62;nan;-24390.41;5075347;28;20169;-73
2022/05/21 03:48:32;;;;;;;3.17;2.20;;;;;;;24.67;nan;-24501.19;5076061;28;20276;-72
2022/05/21 03:50:57;;;;;;;2.60;2.08;;;;;;;25.27;nan;-24517.44;5074770;28;20186;-73
2022/05/21 03:53:23;;;;;;;2.58;1.88;;;;;;;25.95;nan;-24536.13;5077962;28;20255;-73
2022/05/21 03:55:48;;;;;;;3.78;1.90;;;;;;;26.23;nan;-24543.56;5075789;28;20222;-71
2022/05/21 03:58:15;;;;;;;3.53;2.10;;;;;;;26.42;nan;-24548.63;5074190;28;20182;-73
2022/05/21 04:00:41;;;;;;;3.83;2.42;;;;;;;26.77;nan;-24558.38;5070853;28;20189;-71
2022/05/21 04:03:06;;;;;;;2.97;2.08;;;;;;;26.88;nan;-24561.28;5072178;28;20182;-72
2022/05/21 04:05:32;;;;;;;2.47;1.83;;;;;;;27.21;nan;-24570.31;5069731;28;20452;-70
2022/05/21 04:07:57;;;;;;;3.47;2.10;;;;;;;27.22;nan;-24570.59;5066528;28;20182;-70
2022/05/21 04:10:23;;;;;;;2.90;2.20;;;;;;;26.95;nan;-24563.19;5070786;28;20187;-71
2022/05/21 04:12:49;;;;;;;2.08;1.88;;;;;;;27.32;nan;-24573.22;5073047;28;20185;-72
2022/05/21 04:15:15;;;;;;;2.28;1.65;;;;;;;27.61;nan;-24581.00;5070376;28;20288;-71
2022/05/21 04:17:40;;;;;;;2.60;2.10;;;;;;;27.73;nan;-24584.31;5069897;28;20181;-73
2022/05/21 04:20:09;;;;;;;2.42;1.90;;;;;;;27.78;nan;-24585.69;5070713;28;20232;-72
2022/05/21 04:22:34;;;;;;;3.75;1.65;;;;;;;27.86;nan;-24587.88;5068877;28;20260;-74
2022/05/21 04:25:00;;;;;;;2.92;2.08;;;;;;;27.54;nan;-24579.25;5071002;28;20276;-72
2022/05/21 04:27:26;;;;;;;2.83;2.28;;;;;;;27.08;nan;-24566.75;5073110;28;20193;-74
2022/05/21 04:29:52;;;;;;;2.63;2.20;;;;;;;26.77;nan;-24558.25;5076089;28;20582;-71
2022/05/21 04:32:19;;;;;;;4.25;2.20;;;;;;;26.69;nan;-24556.06;5072501;28;20269;-72
2022/05/21 04:34:45;;;;;;;6.03;3.05;;;;;;;26.52;nan;-24551.38;5076776;28;20300;-72
2022/05/21 04:37:11;;;;;;;2.85;2.22;;;;;;;26.16;nan;-24541.63;5079689;28;20614;-70
2022/05/21 04:39:36;;;;;;;3.15;1.92;;;;;;;25.57;nan;-24525.56;5078627;28;20182;-70
2022/05/21 04:42:02;;;;;;;3.28;2.35;;;;;;;25.16;nan;-24514.41;5079884;28;20186;-73
2022/05/21 04:44:31;;;;;;;4.57;2.20;;;;;;;25.23;nan;-24516.47;5080318;28;20276;-70
2022/05/21 04:46:59;;;;;;;3.03;2.05;;;;;;;25.35;nan;-24519.78;5080319;28;20190;-72
2022/05/21 04:49:24;;;;;;;2.47;2.10;;;;;;;25.33;nan;-24519.22;5094044;28;20177;-70
2022/05/21 04:51:50;;;;;;;3.17;2.28;;;;;;;24.98;nan;-24509.72;5079959;28;20265;-73
2022/05/21 04:54:15;;;;;;;2.80;1.95;;;;;;;24.54;nan;-24497.59;5079138;28;20225;-73
2022/05/21 04:56:41;;;;;;;3.90;2.40;;;;;;;24.01;nan;-24483.13;5077925;28;20186;-72
2022/05/21 04:59:09;;;;;;;3.40;2.40;;;;;;;23.95;nan;-24481.47;5079011;28;20234;-73
2022/05/21 05:01:35;;;;;;;3.03;2.13;;;;;;;24.11;nan;-24486.00;5077507;28;20184;-73
2022/05/21 05:04:01;;;;;;;2.65;1.92;;;;;;;24.06;nan;-24484.63;5080980;28;20268;-70
2022/05/21 05:06:26;;;;;;;3.90;2.45;;;;;;;23.71;nan;-24475.13;5078210;28;20564;-71
2022/05/21 05:08:52;;;;;;;2.70;1.85;;;;;;;23.57;nan;-24471.13;5079362;28;20174;-70
2022/05/21 05:11:18;;;;;;;4.38;2.38;;;;;;;23.73;nan;-24475.66;5074032;28;20196;-70
2022/05/21 05:13:43;;;;;;;2.65;1.98;;;;;;;23.57;nan;-24471.25;5079413;28;20217;-74
2022/05/21 05:16:15;;;;;;;3.30;1.98;;;;;;;23.64;nan;-24473.03;5080288;28;20220;-78
2022/05/21 05:18:41;;;;;;;4.18;2.00;;;;;;;23.27;nan;-24462.97;5077516;28;20177;-68
2022/05/21 05:21:13;;;;;;;3.25;2.08;;;;;;;23.57;nan;-24471.25;5075868;28;20186;-74
2022/05/21 05:23:38;;;;;;;7.05;2.40;;;;;;;23.30;nan;-24463.78;5076979;28;20275;-74
2022/05/21 05:26:04;;;;;;;2.47;2.05;;;;;;;22.79;nan;-24449.97;5077889;28;20277;-73
2022/05/21 05:28:29;;;;;;;3.38;2.03;;;;;;;22.20;nan;-24433.66;5079563;28;20181;-72
2022/05/21 05:30:55;;;;;;;2.63;2.25;;;;;;;21.67;nan;-24419.09;5079244;28;20641;-73
2022/05/21 05:33:22;;;;;;;2.63;2.10;;;;;;;20.90;nan;-24398.03;5077837;28;20676;-75
2022/05/21 05:35:50;;;;;;;4.53;2.67;;;;;;;20.69;nan;-24392.34;5077702;28;20269;-74
2022/05/21 05:38:16;;;;;;;3.60;2.42;;;;;;;19.89;nan;-24370.41;5077522;28;20557;-74
2022/05/21 05:40:46;;;;;;;3.45;2.35;;;;;;;19.72;nan;-24365.69;5072471;28;20272;-74
2022/05/21 05:43:17;;;;;;;4.20;2.60;;;;;;;19.45;nan;-24358.31;5073433;28;20178;-74
2022/05/21 05:45:43;;;;;;;3.08;2.40;;;;;;;19.26;nan;-24353.16;5073143;28;20188;-77
2022/05/21 05:48:08;;;;;;;4.70;2.20;;;;;;;19.11;nan;-24348.84;5072677;28;20708;-75
2022/05/21 05:50:34;;;;;;;4.25;2.60;;;;;;;18.98;nan;-24345.50;5073372;28;20165;-75
2022/05/21 05:53:01;;;;;;;3.53;2.40;;;;;;;18.63;nan;-24335.75;5073280;28;20209;-74
2022/05/21 05:55:26;;;;;;;2.95;2.38;;;;;;;18.92;nan;-24343.84;5076874;28;20233;-72
2022/05/21 05:57:52;;;;;;;3.20;2.35;;;;;;;18.52;nan;-24332.81;5106507;28;20182;-71
2022/05/21 06:00:20;;;;;;;2.83;2.20;;;;;;;18.51;nan;-24332.41;5073114;28;20182;-73
2022/05/21 06:02:58;;;;;;;4.65;2.50;;;;;;;18.77;nan;-24339.66;5072946;28;20185;-73
2022/05/21 06:05:24;;;;;;;2.97;2.10;;;;;;;18.86;nan;-24342.03;5075438;28;20237;-74
2022/05/21 06:07:53;;;;;;;2.67;2.08;;;;;;;18.90;nan;-24343.13;5076525;28;20181;-77
2022/05/21 06:10:22;;;;;;;3.33;1.88;;;;;;;19.08;nan;-24348.16;5072982;28;20174;-74
2022/05/21 06:12:48;;;;;;;4.85;2.10;;;;;;;19.14;nan;-24349.81;5072765;28;20193;-73
2022/05/21 06:15:14;;;;;;;3.13;2.40;;;;;;;19.50;nan;-24359.56;5071590;28;20178;-76
2022/05/21 06:17:40;;;;;;;4.05;2.22;;;;;;;19.17;nan;-24350.66;5072334;28;20671;-72
2022/05/21 06:20:08;;;;;;;4.63;2.60;;;;;;;19.57;nan;-24361.50;5075635;28;20177;-73
2022/05/21 06:22:35;;;;;;;2.90;2.10;;;;;;;19.58;nan;-24361.78;5064108;28;20200;-74
2022/05/21 06:25:00;;;;;;;5.40;2.38;;;;;;;19.59;nan;-24362.19;5072782;28;20173;-75
2022/05/21 06:27:26;;;;;;;3.15;2.10;;;;;;;19.60;nan;-24362.34;5073268;28;20158;-77
2022/05/21 06:29:51;;;;;;;2.70;2.05;;;;;;;19.54;nan;-24360.66;5072307;28;20190;-75
2022/05/21 06:32:17;;;;;;;2.80;2.10;;;;;;;19.85;nan;-24369.44;5072240;28;20174;-75
2022/05/21 06:34:42;;;;;;;2.40;2.00;;;;;;;19.86;nan;-24369.56;5072572;28;20229;-73
2022/05/21 06:37:10;;;;;;;3.40;2.08;;;;;;;19.79;nan;-24367.63;5072243;28;20175;-76
2022/05/21 06:39:37;;;;;;;2.83;2.00;;;;;;;20.00;nan;-24373.47;5109137;27;20197;-79
2022/05/21 06:42:04;;;;;;;2.08;1.70;;;;;;;20.17;nan;-24378.19;5107760;27;20223;-71
2022/05/21 06:44:29;;;;;;;1.75;1.65;;;;;;;20.40;nan;-24384.28;5072667;28;20178;-73
2022/05/21 06:46:56;;;;;;;2.88;1.60;;;;;;;20.71;nan;-24392.91;5074959;28;20562;-74
2022/05/21 06:49:22;;;;;;;5.90;1.83;;;;;;;20.51;nan;-24387.34;5071727;28;20253;-72
2022/05/21 06:51:52;;;;;;;2.90;1.50;;;;;;;20.60;nan;-24389.97;5071882;28;20178;-76
2022/05/21 06:54:18;;;;;;;1.95;1.70;;;;;;;20.50;nan;-24387.22;5072165;28;20233;-77
2022/05/21 06:56:43;;;;;;;2.55;1.80;;;;;;;20.90;nan;-24398.16;5072130;28;20197;-75
2022/05/21 06:59:09;;;;;;;2.17;1.50;;;;;;;21.11;nan;-24404.00;5073875;28;20592;-74
2022/05/21 07:01:34;;;;;;;1.90;1.70;;;;;;;21.41;nan;-24412.03;5076427;28;20229;-77
2022/05/21 07:04:00;;;;;;;1.90;1.70;;;;;;;21.24;nan;-24407.31;5077457;28;20181;-71
2022/05/21 07:09:10;;;;;;;4.65;1.70;;;;;;;21.71;nan;-24420.34;5077877;28;20192;-76
2022/05/21 07:11:37;;;;;;;2.67;1.60;;;;;;;21.76;nan;-24421.75;5107602;27;20193;-75
2022/05/21 07:14:03;;;;;;;3.60;1.55;;;;;;;21.72;nan;-24420.63;5074525;28;20290;-77
2022/05/21 07:16:29;;;;;;;1.65;1.40;;;;;;;21.63;nan;-24418.13;5110124;27;20197;-71
2022/05/21 07:18:55;;;;;;;2.38;1.65;;;;;;;22.17;nan;-24432.97;5071585;28;20213;-75
2022/05/21 07:21:20;;;;;;;2.13;1.58;;;;;;;22.31;nan;-24436.69;5070408;28;20645;-74
2022/05/21 07:23:46;;;;;;;2.25;1.88;;;;;;;22.13;nan;-24431.72;5073923;28;20180;-74
2022/05/21 07:26:13;;;;;;;5.30;2.10;;;;;;;22.32;nan;-24437.09;5073463;28;20213;-74
2022/05/21 07:28:38;;;;;;;2.75;1.65;;;;;;;22.65;nan;-24446.09;5076793;28;20185;-60
2022/05/21 07:31:05;;;;;;;3.30;1.80;;;;;;;22.65;nan;-24445.97;5073551;28;20668;-61
2022/05/21 07:33:31;;;;;;;2.63;1.58;;;;;;;22.49;nan;-24441.66;5074770;28;20221;-61
2022/05/21 07:35:56;;;;;;;2.55;1.50;;;;;;;22.55;nan;-24443.19;5076747;28;20566;-61
2022/05/21 07:38:22;;;;;;;1.70;1.50;;;;;;;22.84;nan;-24451.34;5076172;28;20178;-61
2022/05/21 07:40:48;;;;;;;1.83;1.45;;;;;;;22.81;nan;-24450.38;5076138;28;20583;-60
2022/05/21 07:43:27;;;;;;;3.00;1.60;;;;;;;23.09;nan;-24458.00;5075502;28;20292;-61
2022/05/21 07:45:54;;;;;;;1.80;1.70;;;;;;;23.05;nan;-24456.88;5067935;28;20170;-61
2022/05/21 07:48:20;;;;;;;2.22;1.70;;;;;;;23.13;nan;-24459.22;5075969;28;20240;-62
2022/05/21 07:50:49;;;;;;;2.10;1.50;;;;;;;23.34;nan;-24464.91;5075330;28;20252;-62
2022/05/21 07:53:21;;;;;;;1.70;1.60;;;;;;;23.49;nan;-24469.03;5074845;28;20582;-61
2022/05/21 07:55:50;;;;;;;1.50;1.40;;;;;;;23.38;nan;-24466.00;5074963;28;20316;-61
2022/05/21 07:58:17;;;;;;;2.13;1.58;;;;;;;23.17;nan;-24460.19;5075152;28;20253;-62
2022/05/21 08:00:43;;;;;;;2.88;1.92;;;;;;;23.29;nan;-24463.50;5073472;28;20239;-62
2022/05/21 08:03:08;;;;;;;2.30;1.70;;;;;;;23.49;nan;-24469.03;5071050;28;20190;-62
2022/05/21 08:05:34;;;;;;;2.13;1.77;;;;;;;23.86;nan;-24478.97;5071288;28;20337;-62
2022/05/21 08:08:01;;;;;;;2.38;1.60;;;;;;;23.95;nan;-24481.59;5071175;28;20240;-62
2022/05/21 08:10:27;;;;;;;1.60;1.50;;;;;;;24.12;nan;-24486.16;5073296;28;20174;-62
2022/05/21 08:12:53;;;;;;;1.92;1.52;;;;;;;23.82;nan;-24477.88;5074531;28;20730;-61
2022/05/21 08:15:20;;;;;;;2.08;1.48;;;;;;;24.11;nan;-24485.88;5076810;28;20182;-62
2022/05/21 08:17:45;;;;;;;2.00;1.45;;;;;;;23.16;nan;-24459.94;5075688;28;20649;-61
2022/05/21 08:20:12;;;;;;;1.70;1.50;;;;;;;23.18;nan;-24460.47;5078160;28;20186;-60
2022/05/21 08:28:07;;;;;;;1.75;1.40;;;;;;;23.29;nan;-24463.50;5080057;28;20670;-62
2022/05/21 08:30:33;;;;;;;1.40;1.30;;;;;;;23.48;nan;-24468.78;5076285;28;20269;-61
2022/05/21 08:33:00;;;;;;;3.28;1.52;;;;;;;23.47;nan;-24468.50;4537680;28;21344;-61
2022/05/21 08:35:26;;;;;;;1.50;1.40;;;;;;;23.48;nan;-24468.63;5073553;28;20178;-62
2022/05/21 08:37:51;;;;;;;2.22;1.33;;;;;;;23.28;nan;-24463.38;5081515;28;20173;-62
2022/05/21 08:40:17;;;;;;;1.95;1.48;;;;;;;23.66;nan;-24473.59;5077420;28;20182;-62
2022/05/21 08:42:53;;;;;;;1.65;1.50;;;;;;;23.93;nan;-24481.06;5074318;28;20671;-62
2022/05/21 08:45:23;;;;;;;1.40;1.30;;;;;;;24.48;nan;-24496.09;5074640;28;20174;-62
2022/05/21 08:48:01;;;;;;;1.90;1.38;;;;;;;24.60;nan;-24499.38;5076530;28;20173;-62
2022/05/21 08:50:32;;;;;;;2.72;1.63;;;;;;;24.55;nan;-24498.00;5073953;28;20186;-60
2022/05/21 08:53:01;;;;;;;1.73;1.25;;;;;;;24.93;nan;-24508.22;5074425;28;20178;-61
2022/05/21 08:55:35;;;;;;;2.33;1.55;;;;;;;24.87;nan;-24506.69;5074400;28;20213;-61
2022/05/21 08:58:22;;;;;;;1.75;1.55;;;;;;;24.88;nan;-24506.97;5074407;28;20174;-62
2022/05/21 09:00:48;;;;;;;1.75;1.45;;;;;;;25.06;nan;-24511.78;5066480;28;20194;-63
2022/05/21 09:03:20;;;;;;;1.85;1.35;;;;;;;25.70;nan;-24529.13;5072965;28;20534;-62
2022/05/21 09:06:14;;;;;;;2.30;1.55;;;;;;;25.62;nan;-24527.06;5076116;28;20268;-61
2022/05/21 09:09:07;;;;;;;1.67;1.58;;;;;;;25.65;nan;-24527.88;5068417;28;20202;-62
2022/05/21 09:11:43;;;;;;;1.65;1.50;;;;;;;25.42;nan;-24521.69;5078437;28;20182;-61
2022/05/21 09:14:08;;;;;;;1.80;1.42;;;;;;;25.77;nan;-24531.06;5075395;28;20195;-62
2022/05/21 09:16:55;;;;;;;2.13;1.60;;;;;;;25.95;nan;-24536.00;5073229;28;20256;-62
2022/05/21 09:19:25;;;;;;;2.30;1.55;;;;;;;25.52;nan;-24524.44;5078287;28;20178;-62
2022/05/21 09:22:02;;;;;;;2.45;1.58;;;;;;;26.15;nan;-24541.34;5074013;28;20182;-61
2022/05/21 09:24:33;;;;;;;1.92;1.50;;;;;;;26.24;nan;-24543.97;5076391;28;20177;-62
2022/05/21 09:26:59;;;;;;;2.20;1.50;;;;;;;26.25;nan;-24544.25;5075576;28;20204;-61
2022/05/21 09:29:26;;;;;;;1.40;1.30;;;;;;;26.49;nan;-24550.69;5073826;28;20182;-62
2022/05/21 09:31:54;;;;;;;2.33;1.52;;;;;;;23.11;nan;-24458.69;5073371;28;20264;-61
2022/05/21 09:34:30;;;;;;;1.95;1.50;;;;;;;26.69;nan;-24556.19;5077656;28;20224;-63
2022/05/21 09:36:57;;;;;;;2.10;1.70;;;;;;;26.73;nan;-24557.28;5077432;28;20189;-61
2022/05/21 09:39:40;;;;;;;3.13;2.05;;;;;;;26.75;nan;-24557.84;5077212;28;20707;-62
2022/05/21 09:42:13;;;;;;;2.63;1.90;;;;;;;24.13;nan;-24486.56;5076163;28;20174;-61
2022/05/21 09:45:27;;;;;;;3.35;2.15;;;;;;;27.07;nan;-24566.47;5075021;28;20181;-62
2022/05/21 09:47:34;;;;;;;5.30;2.80;;;;;;;27.07;nan;-24566.47;5069918;28;20194;-63
2022/05/21 09:50:05;;;;;;;2.15;1.63;;;;;;;27.02;nan;-24564.97;5073084;28;20633;-61
2022/05/21 09:52:33;;;;;;;3.67;1.92;;;;;;;27.27;nan;-24571.69;5073005;28;20186;-63
2022/05/21 09:54:59;;;;;;;2.40;1.67;;;;;;;27.24;nan;-24571.00;5077093;28;20719;-63
2022/05/21 09:57:34;;;;;;;2.15;1.60;;;;;;;27.36;nan;-24574.16;5075229;28;20178;-63
2022/05/21 10:00:07;;;;;;;3.63;1.77;;;;;;;27.38;nan;-24574.84;5072971;28;20641;-63
2022/05/21 10:02:54;;;;;;;2.10;1.63;;;;;;;27.15;nan;-24568.53;5073200;28;20174;-63
2022/05/21 10:05:29;;;;;;;3.58;2.30;;;;;;;27.27;nan;-24571.69;5076817;28;20181;-63
2022/05/21 10:11:05;;;;;;;1.73;1.63;;;;;;;27.54;nan;-24579.25;5072830;28;20193;-63
2022/05/21 10:13:45;;;;;;;1.90;1.48;;;;;;;27.39;nan;-24574.97;5054008;28;20202;-62
2022/05/21 10:16:15;;;;;;;2.92;1.95;;;;;;;27.63;nan;-24581.56;5077830;28;20198;-62
2022/05/21 10:18:47;;;;;;;2.13;1.45;;;;;;;27.63;nan;-24581.56;5075390;28;20648;-62
2022/05/21 10:21:29;;;;;;;4.32;2.08;;;;;;;27.68;nan;-24583.06;5073850;28;20253;-63
2022/05/21 10:24:07;;;;;;;2.08;1.58;;;;;;;27.49;nan;-24577.72;5072505;28;20192;-63
2022/05/21 10:26:58;;;;;;;2.75;1.70;;;;;;;27.43;nan;-24576.06;5072669;28;20158;-62
2022/05/21 10:29:54;;;;;;;1.95;1.60;;;;;;;27.42;nan;-24575.81;5052548;28;20207;-62
2022/05/21 10:32:28;;;;;;;2.10;1.60;;;;;;;27.78;nan;-24585.69;5051987;28;20232;-63
2022/05/21 10:35:34;;;;;;;1.48;1.38;;;;;;;27.90;nan;-24588.97;5052426;28;20213;-62
2022/05/21 10:38:33;;;;;;;1.52;1.23;;;;;;;27.85;nan;-24587.59;5010335;28;20234;-62
2022/05/21 10:41:25;;;;;;;1.90;1.40;;;;;;;27.83;nan;-24586.91;5010346;28;20191;-62
2022/05/21 10:43:50;;;;;;;2.60;1.40;;;;;;;27.75;nan;-24584.72;5047481;28;20324;-63
2022/05/21 10:46:22;;;;;;;4.35;1.60;;;;;;;27.93;nan;-24589.66;5052316;28;20206;-63
2022/05/21 10:49:13;;;;;;;2.90;1.45;;;;;;;27.86;nan;-24587.88;5052167;28;20657;-61
2022/05/21 10:51:58;;;;;;;2.47;1.60;;;;;;;28.08;nan;-24593.88;5052134;28;20170;-62
2022/05/21 10:54:47;;;;;;;1.73;1.38;;;;;;;28.17;nan;-24596.22;5051630;28;20256;-62
2022/05/21 10:57:40;;;;;;;1.90;1.52;;;;;;;28.14;nan;-24595.41;5052110;28;20587;-62
2022/05/21 11:00:20;;;;;;;2.25;1.60;;;;;;;28.27;nan;-24598.97;5052066;28;20544;-62
2022/05/21 11:03:04;;;;;;;3.83;2.40;;;;;;;28.29;nan;-24599.50;5052075;28;20261;-62
2022/05/21 11:05:49;;;;;;;2.67;1.67;;;;;;;28.48;nan;-24604.69;5051750;28;20630;-62
2022/05/21 11:08:54;;;;;;;1.77;1.45;;;;;;;28.33;nan;-24600.59;5078468;28;20570;-62
2022/05/21 11:11:27;;;;;;;2.50;1.90;;;;;;;28.09;nan;-24594.16;5071678;28;20189;-61
2022/05/21 11:14:25;;;;;;;5.22;2.20;;;;;;;28.53;nan;-24605.94;5072622;28;20208;-62
2022/05/21 11:17:15;;;;;;;2.20;1.40;;;;;;;28.57;nan;-24607.03;5069595;28;20653;-61
2022/05/21 11:19:46;;;;;;;1.90;1.50;;;;;;;28.55;nan;-24606.63;5074813;28;20260;-63
2022/05/21 11:22:24;;;;;;;1.50;1.40;;;;;;;28.63;nan;-24608.66;5107736;27;20186;-62
2022/05/21 11:25:11;;;;;;;1.85;1.63;;;;;;;28.62;nan;-24608.41;5073438;28;20997;-63
2022/05/21 11:27:46;;;;;;;1.85;1.38;;;;;;;28.44;nan;-24603.59;5075096;28;20185;-63
2022/05/21 11:30:17;;;;;;;1.55;1.38;;;;;;;28.78;nan;-24612.78;5075784;28;20716;-62
2022/05/21 11:38:38;;;;;;;1.60;1.40;;;;;;;28.94;nan;-24617.16;5077433;28;20180;-61
2022/05/21 11:41:29;;;;;;;1.30;1.20;;;;;;;28.81;nan;-24613.47;5072374;28;21077;-62
2022/05/21 11:46:54;;;;;;;1.88;1.45;;;;;;;28.92;nan;-24616.47;5077329;28;20291;-62
2022/05/21 11:49:34;;;;;;;1.98;1.35;;;;;;;28.95;nan;-24617.28;5079285;28;20204;-62
2022/05/21 11:52:25;;;;;;;1.90;1.40;;;;;;;29.01;nan;-24618.78;5081665;28;20272;-60
2022/05/21 11:54:51;;;;;;;1.65;1.30;;;;;;;29.04;nan;-24619.75;5078602;28;20229;-61
2022/05/21 11:57:39;;;;;;;1.70;1.30;;;;;;;29.25;nan;-24625.34;5075958;28;20177;-62
2022/05/21 12:00:18;;;;;;;1.77;1.40;;;;;;;29.14;nan;-24622.47;5076612;28;20213;-61
2022/05/21 12:03:02;;;;;;;1.60;1.40;;;;;;;29.45;nan;-24630.66;5077657;28;20196;-61
2022/05/21 12:08:22;;;;;;;1.50;1.30;;;;;;;29.37;nan;-24628.75;5078622;28;20193;-62
2022/05/21 12:11:11;;;;;;;1.70;1.30;;;;;;;29.37;nan;-24628.75;5071873;28;20656;-63
2022/05/21 12:13:39;;;;;;;1.40;1.30;;;;;;;29.39;nan;-24629.16;5076902;28;20702;-63
2022/05/21 12:16:16;;;;;;;3.05;1.40;;;;;;;29.33;nan;-24627.53;5079387;28;20277;-62
2022/05/21 12:18:44;;;;;;;1.48;1.25;;;;;;;29.35;nan;-24628.06;5080825;28;20177;-60
2022/05/21 12:21:30;;;;;;;1.73;1.38;;;;;;;29.71;nan;-24637.91;5078692;28;20263;-62
2022/05/21 12:23:58;;;;;;;1.38;1.20;;;;;;;29.78;nan;-24639.81;5081034;28;20185;-62
2022/05/21 12:26:35;;;;;;;1.88;1.30;;;;;;;29.73;nan;-24638.31;5084196;28;20204;-63
2022/05/21 12:29:16;;;;;;;2.05;1.58;;;;;;;29.93;nan;-24643.78;5078127;28;20648;-64
2022/05/21 12:31:53;;;;;;;1.40;1.20;;;;;;;29.46;nan;-24631.06;5081996;28;20225;-63